»·PEaware :: UAL1521 KSFO-KRDU

UAL1521 :: KSFO-KRDU

FLIGHT INFORMATION

Flight Status: Arrived
Operator:
United Airlines
More flights by this operator :: More flights under this callsign
Pilot: Henderson P. (1210)
Aircraft: AIRBUS A319
(A319)
More flights by this aircraft type
Origin: KSFO San Francisco Intl
United States
Destination: KRDU Raleigh-Durham Intl
United States
More flights between these airports :: More routes between these airports
Route: +TRUKN2 TIPRE Q126 INSLO DTA DBL J80 FQF J128 HCT J60 LNK IRK SPI TTH FLM BKW ROA ALDAN2
File this flight plan on PilotEdge
Remarks:
Altitude:
(Current/Filed)
35,000ft
Speed:
(Current/Filed)
456kts
Departed: 09-Oct-18 12:36 PM
Arrived: 09-Oct-18 02:24 PM
Distance/Time
Traveled:
2079nm/1:47
Distance/Time
To Go:
Arrived

Flight Plot

Page will automatically refresh every two minutes.

Flight plan parsing failed; only flown route is shown


Map Options




Map Legend


Flown Route
Filed Route
Departure Airport
Arrival Airport
Navaid (VOR, NDB)
Fix

Horizontal Profiles

Position Reports

Time Latitude Longitude Heading Altitude Ground
Speed
09-Oct-18 12:37 39.953476 -90.715700 103 36953ft 466kts
09-Oct-18 12:38 39.935759 -90.548226 103 37003ft 467kts
09-Oct-18 12:39 39.917673 -90.380069 103 37044ft 468kts
09-Oct-18 12:40 39.899465 -90.212028 103 37046ft 469kts
09-Oct-18 12:41 39.880850 -90.043715 103 37053ft 469kts
09-Oct-18 12:42 39.862099 -89.875780 103 37059ft 468kts
09-Oct-18 12:43 39.843105 -89.708179 103 37061ft 468kts
09-Oct-18 12:44 39.821355 -89.541718 105 37056ft 467kts
09-Oct-18 12:45 39.798896 -89.375246 104 37058ft 467kts
09-Oct-18 12:46 39.776177 -89.209512 104 37053ft 467kts
09-Oct-18 12:47 39.753184 -89.043223 104 37073ft 467kts
09-Oct-18 12:48 39.729956 -88.876788 104 37086ft 467kts
09-Oct-18 12:49 39.706468 -88.710984 104 37098ft 468kts
09-Oct-18 12:50 39.682725 -88.544809 104 37106ft 468kts
09-Oct-18 12:51 39.658762 -88.378693 104 37111ft 468kts
09-Oct-18 12:52 39.634494 -88.212813 104 37118ft 468kts
09-Oct-18 12:53 39.610092 -88.047106 104 37128ft 467kts
09-Oct-18 12:54 39.585390 -87.881398 104 37123ft 468kts
09-Oct-18 12:55 39.560561 -87.716259 104 37143ft 467kts
09-Oct-18 12:56 39.535391 -87.551044 104 37132ft 468kts
09-Oct-18 12:57 39.510022 -87.385629 104 37147ft 467kts
09-Oct-18 12:58 39.481777 -87.221823 111 37156ft 464kts
09-Oct-18 12:59 39.438569 -87.064328 112 37150ft 464kts
09-Oct-18 13:00 39.395944 -86.906741 112 37166ft 464kts
09-Oct-18 13:01 39.352772 -86.749844 112 37178ft 464kts
09-Oct-18 13:02 39.309275 -86.592263 112 37184ft 465kts
09-Oct-18 13:03 39.265708 -86.435203 112 37186ft 465kts
09-Oct-18 13:04 39.221874 -86.278521 112 37191ft 465kts
09-Oct-18 13:05 39.177809 -86.121664 113 37199ft 464kts
09-Oct-18 13:06 39.133617 -85.965378 112 37194ft 464kts
09-Oct-18 13:07 39.089237 -85.809329 112 37153ft 465kts
09-Oct-18 13:08 39.044487 -85.653069 112 37152ft 465kts
09-Oct-18 13:09 38.999620 -85.497162 112 37147ft 465kts
09-Oct-18 13:10 38.954425 -85.341188 112 37177ft 465kts
09-Oct-18 13:11 38.909118 -85.185526 112 37216ft 465kts
09-Oct-18 13:12 38.863457 -85.029817 112 37223ft 466kts
09-Oct-18 13:13 38.817710 -84.874467 112 37226ft 467kts
09-Oct-18 13:14 38.771572 -84.718821 112 37221ft 467kts
09-Oct-18 13:15 38.725227 -84.563329 112 37226ft 467kts
09-Oct-18 13:16 38.678495 -84.407484 112 37218ft 468kts
09-Oct-18 13:17 38.633896 -84.251186 109 37225ft 469kts
09-Oct-18 13:18 38.593360 -84.092705 109 37212ft 470kts
09-Oct-18 13:19 38.552150 -83.933997 109 37248ft 470kts
09-Oct-18 13:20 38.510812 -83.775302 110 37267ft 470kts
09-Oct-18 13:21 38.469262 -83.617203 110 37267ft 470kts
09-Oct-18 13:22 38.427640 -83.459385 110 37270ft 469kts
09-Oct-18 13:23 38.385966 -83.302431 110 37272ft 467kts
09-Oct-18 13:24 38.344057 -83.145781 111 37275ft 466kts
09-Oct-18 13:25 38.301961 -82.989372 111 37275ft 465kts
09-Oct-18 13:26 38.259959 -82.834067 111 37276ft 463kts
09-Oct-18 13:27 38.218039 -82.680101 112 37282ft 461kts
09-Oct-18 13:28 38.175965 -82.526568 112 37251ft 459kts
09-Oct-18 13:29 38.133791 -82.373393 113 37222ft 458kts
09-Oct-18 13:30 38.091647 -82.221131 113 37224ft 456kts
09-Oct-18 13:31 38.049153 -82.068775 113 37268ft 458kts
09-Oct-18 13:32 38.006542 -81.916703 113 37339ft 458kts
09-Oct-18 13:33 37.963634 -81.764565 113 37353ft 457kts
09-Oct-18 13:34 37.920697 -81.613015 113 37306ft 457kts
09-Oct-18 13:35 37.877370 -81.461139 113 37298ft 458kts
09-Oct-18 13:36 37.833811 -81.309270 114 37354ft 461kts
09-Oct-18 13:37 37.789701 -81.156362 114 37405ft 463kts
09-Oct-18 13:38 37.734538 -81.011498 122 37409ft 457kts
09-Oct-18 13:39 37.675807 -80.868784 121 37357ft 457kts
09-Oct-18 13:40 37.617120 -80.726364 122 37329ft 457kts
09-Oct-18 13:41 37.558309 -80.584345 122 37352ft 458kts
09-Oct-18 13:42 37.499142 -80.441999 122 37436ft 458kts
09-Oct-18 13:43 37.439748 -80.299849 122 37440ft 459kts
09-Oct-18 13:44 37.380334 -80.158247 122 37430ft 458kts
09-Oct-18 13:45 37.314245 -80.022528 132 37417ft 450kts
09-Oct-18 13:46 37.236199 -79.899419 132 37383ft 452kts
09-Oct-18 13:47 37.158732 -79.775349 133 37373ft 451kts
09-Oct-18 13:48 37.080852 -79.651889 132 37364ft 452kts
09-Oct-18 13:49 37.002791 -79.528331 132 37357ft 452kts
09-Oct-18 13:50 36.924400 -79.404849 132 37349ft 453kts
09-Oct-18 13:51 36.846119 -79.281889 132 37341ft 453kts
09-Oct-18 13:52 36.767503 -79.158898 132 37335ft 454kts
09-Oct-18 13:53 36.687087 -79.037693 143 37320ft 449kts
09-Oct-18 13:54 36.574698 -78.985291 171 37336ft 433kts
09-Oct-18 13:55 36.456872 -78.951550 169 37327ft 434kts
09-Oct-18 13:56 36.339993 -78.917869 170 35888ft 433kts
09-Oct-18 13:57 36.230933 -78.927693 223 33353ft 412kts
09-Oct-18 13:58 36.224796 -79.046092 305 32404ft 388kts
09-Oct-18 13:59 36.317667 -79.099078 348 31425ft 366kts
09-Oct-18 14:00 36.413419 -79.119904 345 30117ft 340kts
09-Oct-18 14:01 36.496741 -79.080127 64 28703ft 372kts
09-Oct-18 14:02 36.473989 -78.958176 149 28122ft 403kts
09-Oct-18 14:03 36.373226 -78.927470 169 27223ft 355kts
09-Oct-18 14:04 36.281374 -78.909783 195 26199ft 317kts
09-Oct-18 14:05 36.240742 -78.990793 278 25182ft 299kts
09-Oct-18 14:06 36.309979 -79.045078 356 22546ft 341kts
09-Oct-18 14:07 36.402438 -79.060453 349 21040ft 330kts
09-Oct-18 14:08 36.467542 -79.012685 95 19739ft 281kts
09-Oct-18 14:09 36.427563 -78.942340 163 18267ft 256kts
09-Oct-18 14:10 36.359366 -78.923009 166 16880ft 249kts
09-Oct-18 14:11 36.292449 -78.903657 166 15361ft 249kts
09-Oct-18 14:12 36.234849 -78.886984 166 13383ft 277kts
09-Oct-18 14:13 36.146794 -78.862532 166 11227ft 280kts
09-Oct-18 14:14 36.084069 -78.845170 166 10120ft 266kts
09-Oct-18 14:15 36.006147 -78.840125 179 9280ft 230kts
09-Oct-18 14:16 35.955676 -78.858186 213 8104ft 238kts
09-Oct-18 14:17 35.897127 -78.919002 221 6578ft 235kts
09-Oct-18 14:18 35.859157 -78.966085 220 5545ft 231kts
09-Oct-18 14:19 35.813046 -79.020891 205 4149ft 231kts
09-Oct-18 14:20 35.755300 -78.997675 132 2947ft 217kts
09-Oct-18 14:21 35.761071 -78.941544 48 2441ft 181kts
09-Oct-18 14:22 35.793587 -78.901708 48 2105ft 144kts
09-Oct-18 14:23 35.821731 -78.867020 48 1952ft 135kts
09-Oct-18 14:24 35.847509 -78.835211 46 1219ft 130kts
09-Oct-18 14:25 35.873010 -78.803769 46 529ft 128kts
09-Oct-18 14:26 35.885677 -78.787169 123 449ft 10kts
09-Oct-18 14:27 35.883245 -78.789184 224 449ft 20kts
09-Oct-18 14:28 35.878429 -78.795149 224 449ft 23kts
09-Oct-18 14:29 35.874934 -78.797702 138 449ft 12kts
09-Oct-18 14:30 35.874694 -78.796365 17 449ft 4kts
09-Oct-18 14:31 35.874794 -78.796331 17 449ft 0kts
09-Oct-18 14:32 35.874794 -78.796331 17 449ft 0kts
09-Oct-18 14:33 35.874794 -78.796331 17 449ft 0kts

Navigation Log

Ident Type
Flight plan parsing failed, navigation log unavailable